METAR Formatted Surface Weather Observation
Issued by NWS

Home | Current Version | Previous Version | Text Only | Print | Product List | Glossary On
Versions: 1 2
000
SPZS31 NSTU 141127
MTRSPP
SPECI NSTU 141125Z VRB03KT 5SM SHRA BKN012 OVC036 25/24 A2975=


USA.gov is the U.S. government's official web portal to all federal, state and local government web resources and services.